Hawk Lake, Canada
Current Conditions -  °F | °C
As of 3:00 PM on Thursday 18 Dec 2014 (Local Time) from CYQK Reporting Station
Scattered Clouds Scattered Clouds  
Wind Chill:   Ceiling: Unl
Heat Index: 18°   Visibility: 15mi
Dew Point: 10°   Wind: 10mph
Humidity: 73%   Direction: 180°S
Pressure: 30.2"   Gusts: NA
Location:  49.8°N, 94.01°W
Report Text: CYQK 182100Z 18009KT 15SM FEW170 SCT230 M08/M12 A3020 RMK AC2CI2 SLP259
Loading
Personal Weather Stations






























Interactive Weather Map New forecast layout! Learn more

10-Day Weather Forecast

Advertisements
Track Severe Weather on mobile